Time;durP1;ratioP1;P1;durP2;ratioP2;P2;SDS_P1;SDS_P2;PMS_P1;PMS_P2;Temp;Humidity;BMP_temperature;BMP_pressure;BME280_temperature;BME280_humidity;BME280_pressure;Samples;Min_cycle;Max_cycle;Signal;HPM_P1;HPM_P2
2021/09/29 00:00:46;;;;;;;1.45;1.38;;;;;;;;;;5093579;28;20677;-89
2021/09/29 00:03:13;;;;;;;1.50;1.40;;;;;;;;;;5093253;28;20200;-90
2021/09/29 00:05:42;;;;;;;1.95;1.83;;;;;;;;;;5093689;28;20176;-89
2021/09/29 00:08:10;;;;;;;1.83;1.73;;;;;;;;;;5093215;28;20220;-88
2021/09/29 00:10:38;;;;;;;1.20;1.17;;;;;;;;;;5092937;28;20196;-89
2021/09/29 00:13:06;;;;;;;1.35;1.25;;;;;;;;;;5093537;28;20203;-90
2021/09/29 00:15:34;;;;;;;1.27;1.27;;;;;;;;;;5093252;28;20204;-90
2021/09/29 00:18:02;;;;;;;1.58;1.48;;;;;;;;;;5097476;28;20227;-90
2021/09/29 00:20:29;;;;;;;1.42;1.20;;;;;;;;;;5097643;28;20200;-89
2021/09/29 00:22:58;;;;;;;1.25;1.25;;;;;;;;;;5095835;28;20203;-89
2021/09/29 00:25:25;;;;;;;1.63;1.40;;;;;;;;;;5097080;28;20204;-88
2021/09/29 00:27:53;;;;;;;1.75;1.45;;;;;;;;;;5096328;28;20650;-87
2021/09/29 00:30:20;;;;;;;1.42;1.33;;;;;;;;;;5115492;28;20693;-88
2021/09/29 00:32:48;;;;;;;1.77;1.67;;;;;;;;;;5117409;28;20550;-88
2021/09/29 00:35:17;;;;;;;1.55;1.40;;;;;;;;;;5117055;28;20654;-88
2021/09/29 00:37:46;;;;;;;2.53;2.33;;;;;;;;;;5117023;28;20203;-88
2021/09/29 00:40:15;;;;;;;1.77;1.67;;;;;;;;;;5099520;28;20203;-89
2021/09/29 00:42:42;;;;;;;1.67;1.58;;;;;;;;;;5097325;28;20215;-86
2021/09/29 00:45:10;;;;;;;1.48;1.38;;;;;;;;;;5097101;28;20204;-90
2021/09/29 00:47:38;;;;;;;2.15;1.90;;;;;;;;;;5096635;28;20181;-88
2021/09/29 00:50:07;;;;;;;2.30;2.10;;;;;;;;;;5112712;28;20228;-88
2021/09/29 00:52:35;;;;;;;1.70;1.60;;;;;;;;;;5117042;28;20203;-89
2021/09/29 00:55:08;;;;;;;1.73;1.63;;;;;;;;;;5117321;28;20425;-88
2021/09/29 00:57:37;;;;;;;2.25;1.98;;;;;;;;;;5116830;28;20754;-89
2021/09/29 01:00:05;;;;;;;1.67;1.50;;;;;;;;;;5101373;28;20207;-89
2021/09/29 01:02:35;;;;;;;1.45;1.35;;;;;;;;;;5097608;28;20205;-91
2021/09/29 01:05:03;;;;;;;2.38;1.70;;;;;;;;;;5097885;28;20211;-89
2021/09/29 01:07:34;;;;;;;1.70;1.60;;;;;;;;;;5097061;28;20547;-88
2021/09/29 01:10:09;;;;;;;1.70;1.60;;;;;;;;;;5096176;28;20189;-88
2021/09/29 01:12:44;;;;;;;1.80;1.67;;;;;;;;;;5095886;28;20177;-88
2021/09/29 01:15:16;;;;;;;1.92;1.30;;;;;;;;;;5095759;28;20195;-88
2021/09/29 01:17:48;;;;;;;1.35;1.25;;;;;;;;;;5095810;28;20217;-89
2021/09/29 01:20:20;;;;;;;1.45;1.35;;;;;;;;;;5095611;28;20207;-86
2021/09/29 01:23:09;;;;;;;1.60;1.50;;;;;;;;;;5096088;28;20177;-87
2021/09/29 01:25:46;;;;;;;1.20;1.20;;;;;;;;;;5096082;28;20607;-87
2021/09/29 01:28:16;;;;;;;1.45;1.35;;;;;;;;;;5094629;28;20224;-88
2021/09/29 01:30:44;;;;;;;1.30;1.20;;;;;;;;;;5095773;28;20259;-87
2021/09/29 01:33:11;;;;;;;1.50;1.40;;;;;;;;;;5096443;28;20185;-88
2021/09/29 01:35:39;;;;;;;1.50;1.42;;;;;;;;;;5110344;28;20199;-87
2021/09/29 01:38:08;;;;;;;1.50;1.40;;;;;;;;;;5119166;28;20220;-87
2021/09/29 01:40:36;;;;;;;1.70;1.60;;;;;;;;;;5130970;28;20192;-86
2021/09/29 01:43:04;;;;;;;1.60;1.48;;;;;;;;;;5131809;28;20195;-86
2021/09/29 01:45:35;;;;;;;1.38;1.27;;;;;;;;;;5129317;27;20203;-86
2021/09/29 01:48:02;;;;;;;1.55;1.45;;;;;;;;;;5116287;28;20274;-85
2021/09/29 01:50:31;;;;;;;1.83;1.50;;;;;;;;;;5115752;28;20250;-86
2021/09/29 01:53:00;;;;;;;2.10;2.00;;;;;;;;;;5116608;28;20184;-86
2021/09/29 01:55:29;;;;;;;1.73;1.38;;;;;;;;;;5116872;28;20192;-87
2021/09/29 01:57:56;;;;;;;1.90;1.80;;;;;;;;;;5117424;28;20228;-86
2021/09/29 02:00:24;;;;;;;1.83;1.73;;;;;;;;;;5126455;28;20180;-89
2021/09/29 02:02:56;;;;;;;2.63;2.30;;;;;;;;;;5134875;28;20192;-88
2021/09/29 02:05:34;;;;;;;2.40;2.30;;;;;;;;;;5132655;28;20725;-87
2021/09/29 02:08:04;;;;;;;4.65;2.80;;;;;;;;;;5128895;28;20219;-87
2021/09/29 02:10:33;;;;;;;2.90;2.70;;;;;;;;;;5122632;28;20572;-88
2021/09/29 02:13:00;;;;;;;2.95;2.65;;;;;;;;;;5115439;28;20188;-87
2021/09/29 02:15:28;;;;;;;2.90;2.70;;;;;;;;;;5115405;28;20187;-87
2021/09/29 02:17:57;;;;;;;2.33;2.13;;;;;;;;;;5114845;28;20200;-87
2021/09/29 02:20:24;;;;;;;2.47;2.30;;;;;;;;;;5115614;28;20180;-88
2021/09/29 02:22:52;;;;;;;2.00;1.90;;;;;;;;;;5115281;28;20176;-87
2021/09/29 02:25:19;;;;;;;5.45;3.08;;;;;;;;;;5115689;28;20199;-86
2021/09/29 02:27:48;;;;;;;2.50;2.30;;;;;;;;;;5115437;28;20176;-87
2021/09/29 02:30:16;;;;;;;2.08;1.90;;;;;;;;;;5115197;28;20203;-85
2021/09/29 02:32:45;;;;;;;4.18;2.30;;;;;;;;;;5115194;28;20200;-86
2021/09/29 02:35:15;;;;;;;2.78;2.58;;;;;;;;;;5115752;28;20225;-87
2021/09/29 02:37:42;;;;;;;2.85;2.50;;;;;;;;;;5114269;28;20685;-87
2021/09/29 02:40:10;;;;;;;3.10;2.80;;;;;;;;;;5115122;28;20630;-87
2021/09/29 02:42:37;;;;;;;2.80;2.60;;;;;;;;;;5095396;28;20189;-87
2021/09/29 02:45:07;;;;;;;2.90;2.65;;;;;;;;;;5094822;28;20184;-86
2021/09/29 02:47:35;;;;;;;2.85;2.65;;;;;;;;;;5094985;28;20199;-86
2021/09/29 02:50:03;;;;;;;2.90;2.35;;;;;;;;;;5094449;28;20243;-86
2021/09/29 02:52:38;;;;;;;2.92;2.63;;;;;;;;;;5094573;28;20188;-86
2021/09/29 02:55:07;;;;;;;2.47;2.28;;;;;;;;;;5093963;28;20584;-86
2021/09/29 02:57:35;;;;;;;2.78;2.58;;;;;;;;;;5102189;28;20199;-86
2021/09/29 03:00:05;;;;;;;2.63;2.42;;;;;;;;;;5113306;28;20230;-87
2021/09/29 03:02:33;;;;;;;2.90;2.60;;;;;;;;;;5113462;28;20184;-87
2021/09/29 03:05:00;;;;;;;3.13;2.92;;;;;;;;;;5114132;28;20210;-86
2021/09/29 03:07:27;;;;;;;2.85;2.65;;;;;;;;;;5114204;27;20192;-87
2021/09/29 03:09:57;;;;;;;4.82;2.88;;;;;;;;;;5113764;27;20230;-87
2021/09/29 03:12:24;;;;;;;2.50;2.30;;;;;;;;;;5114099;28;20187;-87
2021/09/29 03:14:53;;;;;;;3.38;3.08;;;;;;;;;;5114559;28;20176;-87
2021/09/29 03:17:21;;;;;;;3.30;3.00;;;;;;;;;;5114292;28;20515;-85
2021/09/29 03:19:48;;;;;;;2.45;2.25;;;;;;;;;;5113996;27;20219;-86
2021/09/29 03:22:17;;;;;;;3.00;2.80;;;;;;;;;;5113584;28;20195;-86
2021/09/29 03:24:44;;;;;;;2.58;2.38;;;;;;;;;;5099768;28;20188;-86
2021/09/29 03:27:13;;;;;;;2.58;2.38;;;;;;;;;;5093519;28;20192;-86
2021/09/29 03:29:41;;;;;;;2.30;2.10;;;;;;;;;;5093568;28;20224;-86
2021/09/29 03:32:09;;;;;;;2.42;2.33;;;;;;;;;;5093137;28;20827;-86
2021/09/29 03:34:38;;;;;;;2.10;2.00;;;;;;;;;;5095069;28;20203;-86
2021/09/29 03:37:06;;;;;;;2.08;1.98;;;;;;;;;;5093422;28;20196;-86
2021/09/29 03:39:35;;;;;;;2.20;2.08;;;;;;;;;;5106101;28;20584;-86
2021/09/29 03:42:05;;;;;;;2.03;1.85;;;;;;;;;;5093110;28;20204;-85
2021/09/29 03:44:34;;;;;;;1.90;1.80;;;;;;;;;;5096761;28;20196;-87
2021/09/29 03:47:03;;;;;;;2.42;2.00;;;;;;;;;;5093415;28;20176;-87
2021/09/29 03:49:31;;;;;;;2.17;1.85;;;;;;;;;;5098694;28;20227;-87
2021/09/29 03:51:59;;;;;;;1.90;1.80;;;;;;;;;;5112779;28;20204;-86
2021/09/29 03:54:27;;;;;;;1.73;1.63;;;;;;;;;;5114014;28;20179;-87
2021/09/29 03:56:54;;;;;;;2.03;1.92;;;;;;;;;;5113724;28;20180;-87
2021/09/29 03:59:23;;;;;;;2.03;1.92;;;;;;;;;;5113323;28;20227;-85
2021/09/29 04:01:53;;;;;;;2.25;2.15;;;;;;;;;;5113424;28;20184;-88
2021/09/29 04:04:22;;;;;;;1.90;1.80;;;;;;;;;;5113033;28;20199;-87
2021/09/29 04:06:50;;;;;;;2.42;2.28;;;;;;;;;;5113022;28;20176;-88
2021/09/29 04:09:17;;;;;;;2.53;2.33;;;;;;;;;;5112955;28;20226;-87
2021/09/29 04:11:45;;;;;;;3.42;2.70;;;;;;;;;;5112982;28;20176;-87
2021/09/29 04:14:15;;;;;;;2.13;1.92;;;;;;;;;;5110849;28;20218;-86
2021/09/29 04:16:43;;;;;;;2.28;1.92;;;;;;;;;;5092788;28;20588;-86
2021/09/29 04:19:17;;;;;;;3.85;3.45;;;;;;;;;;5092758;28;20227;-88
2021/09/29 04:21:46;;;;;;;3.50;3.08;;;;;;;;;;5101114;28;20223;-90
2021/09/29 04:24:14;;;;;;;5.43;3.28;;;;;;;;;;5109711;28;20227;-90
2021/09/29 04:26:44;;;;;;;2.85;2.65;;;;;;;;;;5092705;28;20264;-90
2021/09/29 04:30:00;;;;;;;2.45;2.33;;;;;;;;;;5113319;28;20219;-89
2021/09/29 04:32:33;;;;;;;2.15;2.05;;;;;;;;;;5113519;28;20203;-88
2021/09/29 04:35:24;;;;;;;2.90;2.25;;;;;;;;;;5113452;28;20180;-88
2021/09/29 04:38:33;;;;;;;2.63;2.42;;;;;;;;;;5112407;28;20176;-88
2021/09/29 04:41:05;;;;;;;2.55;2.35;;;;;;;;;;5113003;28;20206;-89
2021/09/29 04:43:32;;;;;;;2.28;2.13;;;;;;;;;;5113000;28;20188;-89
2021/09/29 04:46:00;;;;;;;2.75;2.55;;;;;;;;;;5113384;28;20192;-88
2021/09/29 04:48:28;;;;;;;2.55;2.35;;;;;;;;;;5114209;28;20226;-88
2021/09/29 04:50:58;;;;;;;2.35;2.17;;;;;;;;;;5106481;28;20235;-88
2021/09/29 04:53:26;;;;;;;3.00;2.80;;;;;;;;;;5091704;28;20636;-88
2021/09/29 04:55:59;;;;;;;2.95;2.03;;;;;;;;;;5092305;28;20628;-89
2021/09/29 04:58:32;;;;;;;2.08;1.98;;;;;;;;;;5092493;28;20220;-87
2021/09/29 05:00:59;;;;;;;2.08;1.88;;;;;;;;;;5091792;28;20273;-88
2021/09/29 05:03:26;;;;;;;2.10;1.90;;;;;;;;;;5095252;28;20192;-88
2021/09/29 05:06:01;;;;;;;2.10;2.00;;;;;;;;;;5096250;28;20199;-89
2021/09/29 05:08:34;;;;;;;3.40;2.97;;;;;;;;;;5102786;28;20276;-89
2021/09/29 05:11:06;;;;;;;3.35;1.95;;;;;;;;;;5116640;28;20176;-89
2021/09/29 05:13:35;;;;;;;2.38;2.17;;;;;;;;;;5116920;28;20556;-89
2021/09/29 05:16:05;;;;;;;1.90;1.50;;;;;;;;;;5114014;28;20202;-89
2021/09/29 05:18:34;;;;;;;2.10;2.00;;;;;;;;;;5096677;28;20223;-89
2021/09/29 05:21:03;;;;;;;1.92;1.70;;;;;;;;;;5095748;28;20596;-88
2021/09/29 05:23:42;;;;;;;2.30;2.10;;;;;;;;;;5095940;28;20172;-88
2021/09/29 05:26:11;;;;;;;2.40;2.20;;;;;;;;;;5105132;28;20200;-88
2021/09/29 05:28:42;;;;;;;2.20;2.10;;;;;;;;;;5116085;28;20222;-87
2021/09/29 05:31:11;;;;;;;1.95;1.83;;;;;;;;;;5116082;28;20180;-88
2021/09/29 05:33:40;;;;;;;2.28;1.95;;;;;;;;;;5116324;28;20192;-87
2021/09/29 05:36:11;;;;;;;1.73;1.60;;;;;;;;;;5116121;28;20771;-87
2021/09/29 05:38:39;;;;;;;2.47;2.28;;;;;;;;;;5115673;28;20215;-89
2021/09/29 05:41:08;;;;;;;2.47;2.25;;;;;;;;;;5098952;28;20586;-89
2021/09/29 05:43:47;;;;;;;2.45;2.25;;;;;;;;;;5097124;28;20561;-91
2021/09/29 05:46:17;;;;;;;1.98;1.88;;;;;;;;;;5096509;28;20600;-90
2021/09/29 05:48:48;;;;;;;2.95;2.75;;;;;;;;;;5096255;28;20239;-89
2021/09/29 05:51:50;;;;;;;1.75;1.65;;;;;;;;;;5096486;28;20280;-89
2021/09/29 05:57:06;;;;;;;3.05;2.75;;;;;;;;;;5095143;28;20212;-89
2021/09/29 05:59:34;;;;;;;2.20;2.05;;;;;;;;;;5096766;28;20220;-91
2021/09/29 06:02:08;;;;;;;1.70;1.60;;;;;;;;;;5098049;28;20292;-91
2021/09/29 06:04:50;;;;;;;1.83;1.73;;;;;;;;;;5098158;28;20596;-90
2021/09/29 06:07:27;;;;;;;1.63;1.50;;;;;;;;;;5097471;28;20187;-90
2021/09/29 06:09:56;;;;;;;1.50;1.40;;;;;;;;;;5098626;28;20312;-90
2021/09/29 06:12:25;;;;;;;1.73;1.63;;;;;;;;;;5095829;28;20662;-89
2021/09/29 06:14:57;;;;;;;1.67;1.58;;;;;;;;;;5095884;28;20200;-90
2021/09/29 06:17:40;;;;;;;2.10;2.00;;;;;;;;;;5096993;28;20181;-88
2021/09/29 06:20:10;;;;;;;2.10;2.00;;;;;;;;;;5096845;28;20222;-89
2021/09/29 06:22:48;;;;;;;2.05;1.95;;;;;;;;;;5096703;28;20271;-87
2021/09/29 06:25:18;;;;;;;2.25;2.10;;;;;;;;;;5095345;28;20192;-88
2021/09/29 06:27:46;;;;;;;2.40;2.20;;;;;;;;;;5096026;28;20185;-90
2021/09/29 06:30:16;;;;;;;2.65;2.45;;;;;;;;;;5097840;28;20200;-89
2021/09/29 06:32:53;;;;;;;2.80;2.55;;;;;;;;;;5097263;28;20256;-89
2021/09/29 06:35:20;;;;;;;2.50;2.30;;;;;;;;;;5097327;28;20180;-88
2021/09/29 06:37:49;;;;;;;2.33;2.13;;;;;;;;;;5098337;28;20234;-89
2021/09/29 06:40:20;;;;;;;1.90;1.70;;;;;;;;;;5100858;28;20185;-90
2021/09/29 06:42:48;;;;;;;2.10;2.00;;;;;;;;;;5117155;28;20282;-90
2021/09/29 06:45:16;;;;;;;1.60;1.50;;;;;;;;;;5117397;28;20202;-89
2021/09/29 06:47:45;;;;;;;2.05;1.95;;;;;;;;;;5115722;28;20578;-88
2021/09/29 06:50:14;;;;;;;2.45;2.20;;;;;;;;;;5113953;28;20227;-87
2021/09/29 06:52:44;;;;;;;2.25;2.00;;;;;;;;;;5113607;28;20176;-89
2021/09/29 06:55:15;;;;;;;2.10;1.90;;;;;;;;;;5114670;28;20207;-88
2021/09/29 07:01:25;;;;;;;2.42;2.20;;;;;;;;;;5093599;28;20219;-89
2021/09/29 07:03:52;;;;;;;2.00;1.83;;;;;;;;;;5093801;28;20646;-89
2021/09/29 07:06:20;;;;;;;2.53;2.42;;;;;;;;;;5093926;28;20193;-88
2021/09/29 07:08:47;;;;;;;1.92;1.83;;;;;;;;;;5094283;28;20244;-88
2021/09/29 07:11:18;;;;;;;2.60;2.42;;;;;;;;;;5093998;28;20218;-88
2021/09/29 07:13:50;;;;;;;2.50;2.30;;;;;;;;;;5095173;28;20181;-90
2021/09/29 07:16:19;;;;;;;1.92;1.83;;;;;;;;;;5097385;28;20192;-89
2021/09/29 07:18:54;;;;;;;1.92;1.83;;;;;;;;;;5113702;28;20231;-84
2021/09/29 07:21:28;;;;;;;2.53;2.08;;;;;;;;;;5114324;28;20306;-89
2021/09/29 07:23:58;;;;;;;2.30;2.10;;;;;;;;;;5113214;28;20199;-89
2021/09/29 07:26:33;;;;;;;3.70;2.90;;;;;;;;;;5113253;28;20215;-89
2021/09/29 07:29:14;;;;;;;2.78;2.25;;;;;;;;;;5114260;28;20215;-89
2021/09/29 07:32:07;;;;;;;3.58;3.15;;;;;;;;;;5113862;28;20203;-89
2021/09/29 07:35:00;;;;;;;2.58;2.38;;;;;;;;;;5113990;28;20179;-89
2021/09/29 07:37:42;;;;;;;2.78;2.58;;;;;;;;;;5114059;28;20182;-89
2021/09/29 07:40:11;;;;;;;2.20;2.00;;;;;;;;;;5113990;28;20176;-87
2021/09/29 07:42:46;;;;;;;2.60;2.40;;;;;;;;;;5109151;28;20207;-89
2021/09/29 07:45:14;;;;;;;2.50;2.30;;;;;;;;;;5093573;28;20184;-89
2021/09/29 07:47:43;;;;;;;4.95;3.22;;;;;;;;;;5093230;28;20651;-89
2021/09/29 07:50:12;;;;;;;2.63;2.30;;;;;;;;;;5093025;28;20285;-88
2021/09/29 07:52:41;;;;;;;2.28;2.05;;;;;;;;;;5093398;28;20196;-89
2021/09/29 07:55:49;;;;;;;3.28;3.08;;;;;;;;;;5093344;28;20184;-90
2021/09/29 07:58:18;;;;;;;2.03;1.80;;;;;;;;;;5093394;28;20224;-89
2021/09/29 08:00:57;;;;;;;2.90;2.00;;;;;;;;;;5093533;28;20216;-89
2021/09/29 08:03:43;;;;;;;2.75;2.55;;;;;;;;;;5093250;28;20199;-89
2021/09/29 08:06:21;;;;;;;2.83;2.63;;;;;;;;;;5093355;28;20196;-88
2021/09/29 08:09:00;;;;;;;2.95;2.75;;;;;;;;;;5093274;28;20226;-90
2021/09/29 08:11:28;;;;;;;2.63;2.42;;;;;;;;;;5093170;28;20278;-89
2021/09/29 08:14:24;;;;;;;3.90;3.38;;;;;;;;;;5093297;28;20188;-90
2021/09/29 08:17:05;;;;;;;2.85;2.40;;;;;;;;;;5093535;28;20188;-90
2021/09/29 08:20:00;;;;;;;2.67;2.47;;;;;;;;;;5093729;28;20226;-90
2021/09/29 08:22:54;;;;;;;2.00;1.85;;;;;;;;;;5093316;28;20638;-91
2021/09/29 08:25:34;;;;;;;3.83;2.60;;;;;;;;;;5093468;28;20658;-91
2021/09/29 08:28:31;;;;;;;3.10;2.58;;;;;;;;;;5094053;28;20244;-91
2021/09/29 08:31:44;;;;;;;3.03;2.83;;;;;;;;;;5093497;28;20298;-90
2021/09/29 08:34:36;;;;;;;3.42;3.13;;;;;;;;;;5094088;28;20207;-90
2021/09/29 08:37:17;;;;;;;4.00;3.60;;;;;;;;;;5093589;28;20257;-90
2021/09/29 08:40:21;;;;;;;4.07;3.78;;;;;;;;;;5096941;28;20257;-91
2021/09/29 08:43:05;;;;;;;3.72;3.42;;;;;;;;;;5097525;28;20250;-91
2021/09/29 08:45:37;;;;;;;4.20;3.42;;;;;;;;;;5098381;28;20212;-90
2021/09/29 08:48:20;;;;;;;3.53;3.25;;;;;;;;;;5098989;28;20223;-90
2021/09/29 08:54:00;;;;;;;3.10;2.80;;;;;;;;;;5092729;28;20192;-92
2021/09/29 09:16:33;;;;;;;3.42;2.67;;;;;;;;;;5121128;28;20182;-92
2021/09/29 09:19:09;;;;;;;2.78;2.30;;;;;;;;;;5116759;28;20220;-92
2021/09/29 09:21:43;;;;;;;2.63;2.30;;;;;;;;;;5131484;28;20214;-91
2021/09/29 09:24:21;;;;;;;2.85;2.63;;;;;;;;;;5121095;28;20294;-91
2021/09/29 09:26:59;;;;;;;3.33;3.08;;;;;;;;;;5116827;28;20188;-89
2021/09/29 09:29:30;;;;;;;3.28;2.97;;;;;;;;;;5122781;28;20231;-89
2021/09/29 09:32:09;;;;;;;3.25;2.92;;;;;;;;;;5118918;28;20184;-90
2021/09/29 09:34:38;;;;;;;3.10;2.90;;;;;;;;;;5116186;28;20205;-90
2021/09/29 09:37:11;;;;;;;2.92;2.72;;;;;;;;;;5118632;28;20290;-88
2021/09/29 09:39:42;;;;;;;2.20;2.00;;;;;;;;;;5117300;28;20219;-90
2021/09/29 09:42:11;;;;;;;2.00;1.90;;;;;;;;;;5116451;28;20239;-91
2021/09/29 09:44:41;;;;;;;2.53;2.33;;;;;;;;;;5116510;28;20225;-88
2021/09/29 09:47:18;;;;;;;2.30;2.10;;;;;;;;;;5116379;28;20196;-90
2021/09/29 09:49:48;;;;;;;2.30;2.10;;;;;;;;;;5113812;28;20306;-91
2021/09/29 09:52:29;;;;;;;3.15;2.05;;;;;;;;;;5116314;28;20195;-90
2021/09/29 09:55:04;;;;;;;2.97;2.00;;;;;;;;;;5116060;28;20626;-90
2021/09/29 09:57:35;;;;;;;1.85;1.73;;;;;;;;;;5116649;28;20649;-89
2021/09/29 10:00:06;;;;;;;2.80;2.45;;;;;;;;;;5115417;28;20220;-88
2021/09/29 10:02:41;;;;;;;2.65;2.30;;;;;;;;;;5115850;28;20572;-89
2021/09/29 10:05:11;;;;;;;2.42;2.22;;;;;;;;;;5115650;28;20211;-89
2021/09/29 10:07:41;;;;;;;2.35;2.15;;;;;;;;;;5115591;28;20203;-89
2021/09/29 10:10:16;;;;;;;2.42;1.55;;;;;;;;;;5115611;27;20195;-89
2021/09/29 10:13:06;;;;;;;1.98;1.88;;;;;;;;;;5115592;28;20675;-90
2021/09/29 10:27:07;;;;;;;2.15;1.95;;;;;;;;;;5114914;28;20178;-90
2021/09/29 10:29:40;;;;;;;1.85;1.75;;;;;;;;;;5115311;28;20305;-90
2021/09/29 10:32:18;;;;;;;2.00;1.80;;;;;;;;;;5115080;28;20183;-90
2021/09/29 10:35:10;;;;;;;1.77;1.67;;;;;;;;;;5114831;28;20200;-90
2021/09/29 10:40:18;;;;;;;2.45;1.83;;;;;;;;;;5115255;28;20280;-89
2021/09/29 10:40:58;;;;;;;1.70;1.55;;;;;;;;;;5114650;28;20218;-90
2021/09/29 10:43:42;;;;;;;4.50;2.60;;;;;;;;;;5114636;28;20474;-89
2021/09/29 10:46:26;;;;;;;2.58;1.63;;;;;;;;;;5114765;28;20224;-89
2021/09/29 10:49:10;;;;;;;2.10;1.52;;;;;;;;;;5114577;28;20219;-88
2021/09/29 10:52:32;;;;;;;2.53;2.10;;;;;;;;;;5114618;28;20223;-90
2021/09/29 11:04:39;;;;;;;1.40;1.30;;;;;;;;;;5031624;28;20210;-90
2021/09/29 11:27:38;;;;;;;1.50;0.88;;;;;;;;;;5113614;28;20183;-89
2021/09/29 11:30:18;;;;;;;1.98;1.10;;;;;;;;;;5104120;28;20234;-87
2021/09/29 11:32:57;;;;;;;1.33;1.10;;;;;;;;;;5094097;28;20196;-89
2021/09/29 11:35:33;;;;;;;2.28;1.00;;;;;;;;;;5092766;28;20642;-87
2021/09/29 11:38:24;;;;;;;0.98;0.93;;;;;;;;;;5092846;28;20592;-88
2021/09/29 12:08:58;;;;;;;1.25;1.00;;;;;;;;;;5113432;28;20222;-89
2021/09/29 12:11:28;;;;;;;0.95;0.95;;;;;;;;;;5100775;28;20324;-90
2021/09/29 12:13:58;;;;;;;3.47;1.38;;;;;;;;;;5099710;28;20196;-89
2021/09/29 12:16:29;;;;;;;1.42;0.80;;;;;;;;;;5115789;28;20666;-86
2021/09/29 12:19:03;;;;;;;1.20;1.02;;;;;;;;;;5094041;28;20218;-88
2021/09/29 12:21:42;;;;;;;1.00;0.90;;;;;;;;;;5092789;28;20204;-91
2021/09/29 12:24:14;;;;;;;1.13;1.00;;;;;;;;;;5093004;28;20980;-89
2021/09/29 12:26:52;;;;;;;1.35;1.25;;;;;;;;;;5092885;28;20193;-88
2021/09/29 12:29:28;;;;;;;1.27;1.10;;;;;;;;;;5113271;28;20258;-87
2021/09/29 12:32:07;;;;;;;2.40;1.60;;;;;;;;;;5112594;28;20199;-84
2021/09/29 12:34:47;;;;;;;0.80;0.80;;;;;;;;;;5114226;28;20214;-85
2021/09/29 12:37:20;;;;;;;1.23;1.13;;;;;;;;;;5114351;28;20209;-91
2021/09/29 12:39:57;;;;;;;1.10;1.05;;;;;;;;;;5104726;28;20215;-88
2021/09/29 12:42:39;;;;;;;1.00;1.00;;;;;;;;;;5095687;28;20245;-89
2021/09/29 12:45:11;;;;;;;1.00;0.90;;;;;;;;;;5093650;28;20215;-89
2021/09/29 12:47:44;;;;;;;0.95;0.80;;;;;;;;;;5096937;28;20205;-88
2021/09/29 12:50:38;;;;;;;1.23;1.10;;;;;;;;;;5109237;28;20598;-88
2021/09/29 12:53:19;;;;;;;2.13;1.65;;;;;;;;;;5092712;28;20200;-89
2021/09/29 12:55:52;;;;;;;2.97;1.08;;;;;;;;;;5109437;28;20584;-86
2021/09/29 12:58:20;;;;;;;2.55;0.80;;;;;;;;;;5112547;28;20216;-88
2021/09/29 13:00:49;;;;;;;0.88;0.80;;;;;;;;;;5112710;28;20184;-89
2021/09/29 13:03:19;;;;;;;1.77;0.70;;;;;;;;;;5108407;28;20220;-89
2021/09/29 13:05:49;;;;;;;1.75;0.65;;;;;;;;;;5101723;28;20237;-87
2021/09/29 13:08:20;;;;;;;1.35;0.75;;;;;;;;;;5112010;28;20303;-88
2021/09/29 13:10:50;;;;;;;0.60;0.60;;;;;;;;;;5112779;28;20215;-86
2021/09/29 13:13:18;;;;;;;0.75;0.68;;;;;;;;;;5098424;28;20267;-88
2021/09/29 13:15:50;;;;;;;0.82;0.57;;;;;;;;;;5112427;28;20188;-88
2021/09/29 13:18:31;;;;;;;0.40;0.40;;;;;;;;;;5098768;28;20562;-88
2021/09/29 13:21:18;;;;;;;0.55;0.35;;;;;;;;;;5092365;28;20220;-87
2021/09/29 13:24:21;;;;;;;1.55;0.60;;;;;;;;;;5092412;28;20225;-87
2021/09/29 13:27:04;;;;;;;0.65;0.60;;;;;;;;;;5096942;28;20223;-87
2021/09/29 13:36:32;;;;;;;0.65;0.50;;;;;;;;;;5115914;28;20199;-88
2021/09/29 13:38:11;;;;;;;1.02;1.02;;;;;;;;;;5102856;28;20220;-88
2021/09/29 13:40:43;;;;;;;0.70;0.70;;;;;;;;;;5095423;28;20196;-88
2021/09/29 13:43:11;;;;;;;1.30;0.80;;;;;;;;;;5095484;28;20202;-86
2021/09/29 13:45:39;;;;;;;0.50;0.50;;;;;;;;;;5095293;28;20201;-88
2021/09/29 13:48:08;;;;;;;1.50;0.60;;;;;;;;;;5106887;28;20224;-88
2021/09/29 13:50:36;;;;;;;0.50;0.50;;;;;;;;;;5101127;28;20229;-87
2021/09/29 13:53:10;;;;;;;0.68;0.68;;;;;;;;;;5095235;28;20181;-88
2021/09/29 13:55:46;;;;;;;0.60;0.60;;;;;;;;;;5094799;28;20283;-87
2021/09/29 13:58:31;;;;;;;0.60;0.60;;;;;;;;;;5095112;28;20273;-89
2021/09/29 14:01:16;;;;;;;1.00;1.00;;;;;;;;;;5095214;28;20349;-87
2021/09/29 14:29:32;;;;;;;0.30;0.30;;;;;;;;;;5110244;28;21005;-89
2021/09/29 14:32:08;;;;;;;0.50;0.50;;;;;;;;;;5114336;28;20272;-90
2021/09/29 14:34:43;;;;;;;0.57;0.57;;;;;;;;;;5094509;28;20245;-89
2021/09/29 14:37:22;;;;;;;0.52;0.52;;;;;;;;;;5106452;28;20283;-89
2021/09/29 14:39:52;;;;;;;0.50;0.50;;;;;;;;;;5093697;28;20299;-89
2021/09/29 14:42:22;;;;;;;0.63;0.63;;;;;;;;;;5104621;28;20196;-89
2021/09/29 14:45:00;;;;;;;0.95;0.63;;;;;;;;;;5093951;28;20216;-89
2021/09/29 14:48:00;;;;;;;0.52;0.52;;;;;;;;;;5105660;28;20272;-89
2021/09/29 14:50:30;;;;;;;0.80;0.80;;;;;;;;;;5093700;28;20232;-89
2021/09/29 14:53:01;;;;;;;0.70;0.70;;;;;;;;;;5094104;28;20224;-88
2021/09/29 14:55:38;;;;;;;0.73;0.73;;;;;;;;;;5094139;28;20196;-88
2021/09/29 14:58:30;;;;;;;0.70;0.70;;;;;;;;;;5105788;28;20252;-89
2021/09/29 15:01:01;;;;;;;0.70;0.70;;;;;;;;;;5106801;28;20181;-89
2021/09/29 15:03:36;;;;;;;0.73;0.73;;;;;;;;;;5093752;28;20177;-89
2021/09/29 15:06:10;;;;;;;1.15;1.13;;;;;;;;;;5100918;28;20231;-88
2021/09/29 15:08:41;;;;;;;1.40;0.80;;;;;;;;;;5114442;28;20656;-88
2021/09/29 15:11:16;;;;;;;0.77;0.77;;;;;;;;;;5114347;28;20204;-88
2021/09/29 15:13:50;;;;;;;0.70;0.70;;;;;;;;;;5104461;28;20203;-88
2021/09/29 15:16:50;;;;;;;0.68;0.68;;;;;;;;;;5102471;28;20567;-88
2021/09/29 15:19:34;;;;;;;0.90;0.90;;;;;;;;;;5104257;28;20631;-89
2021/09/29 15:22:12;;;;;;;0.70;0.70;;;;;;;;;;5113158;28;20203;-89
2021/09/29 15:25:09;;;;;;;0.80;0.80;;;;;;;;;;5093394;28;20196;-89
2021/09/29 15:48:16;;;;;;;1.45;0.50;;;;;;;;;;5092263;28;20192;-89
2021/09/29 15:51:00;;;;;;;0.50;0.50;;;;;;;;;;5092893;28;20255;-90
2021/09/29 15:53:40;;;;;;;0.50;0.50;;;;;;;;;;5092911;28;20667;-89
2021/09/29 15:56:22;;;;;;;0.60;0.57;;;;;;;;;;5093174;28;20200;-88
2021/09/29 16:01:54;;;;;;;0.43;0.40;;;;;;;;;;5097261;28;20196;-89
2021/09/29 16:04:31;;;;;;;0.50;0.50;;;;;;;;;;5092472;28;20196;-89
2021/09/29 16:07:35;;;;;;;0.60;0.60;;;;;;;;;;5092735;28;20269;-90
2021/09/29 16:10:23;;;;;;;0.65;0.65;;;;;;;;;;5092317;28;20230;-90
2021/09/29 16:30:20;;;;;;;0.47;0.47;;;;;;;;;;5097933;28;20195;-89
2021/09/29 16:33:27;;;;;;;0.50;0.50;;;;;;;;;;5092645;28;20661;-88
2021/09/29 16:35:59;;;;;;;0.45;0.45;;;;;;;;;;5096949;28;20202;-88
2021/09/29 16:38:26;;;;;;;0.52;0.52;;;;;;;;;;5099935;28;20223;-89
2021/09/29 16:40:56;;;;;;;0.47;0.47;;;;;;;;;;5098035;28;20190;-89
2021/09/29 16:43:24;;;;;;;0.52;0.52;;;;;;;;;;5111902;28;20218;-89
2021/09/29 16:45:54;;;;;;;0.20;0.20;;;;;;;;;;5091500;28;20259;-88
2021/09/29 16:48:26;;;;;;;0.22;0.22;;;;;;;;;;5093622;28;20698;-88
2021/09/29 16:51:07;;;;;;;0.50;0.50;;;;;;;;;;5092197;28;20224;-89
2021/09/29 16:53:40;;;;;;;0.60;0.60;;;;;;;;;;5092849;28;20288;-87
2021/09/29 16:56:12;;;;;;;0.28;0.28;;;;;;;;;;5107192;28;20669;-89
2021/09/29 16:58:59;;;;;;;0.40;0.40;;;;;;;;;;5113547;28;20219;-89
2021/09/29 17:01:31;;;;;;;0.30;0.30;;;;;;;;;;5108780;28;20220;-87
2021/09/29 17:04:02;;;;;;;0.40;0.40;;;;;;;;;;5104913;28;20557;-89
2021/09/29 17:06:33;;;;;;;0.30;0.30;;;;;;;;;;5095776;28;20224;-89
2021/09/29 17:09:01;;;;;;;0.35;0.35;;;;;;;;;;5114542;28;20255;-88
2021/09/29 17:11:35;;;;;;;0.50;0.50;;;;;;;;;;5095376;28;20682;-87
2021/09/29 17:14:05;;;;;;;0.50;0.50;;;;;;;;;;5096511;28;20208;-89
2021/09/29 17:16:34;;;;;;;0.30;0.30;;;;;;;;;;5105728;28;20285;-88
2021/09/29 17:19:04;;;;;;;0.45;0.45;;;;;;;;;;5095490;28;20220;-88
2021/09/29 17:21:34;;;;;;;0.40;0.40;;;;;;;;;;5100623;28;20200;-88
2021/09/29 17:24:01;;;;;;;0.57;0.20;;;;;;;;;;5115876;28;20554;-88
2021/09/29 17:26:30;;;;;;;0.47;0.47;;;;;;;;;;5104663;28;20220;-87
2021/09/29 17:29:01;;;;;;;0.40;0.40;;;;;;;;;;5095586;28;20224;-87
2021/09/29 17:31:33;;;;;;;2.58;0.52;;;;;;;;;;5095296;28;20192;-85
2021/09/29 17:34:12;;;;;;;0.95;0.57;;;;;;;;;;5100144;28;20189;-87
2021/09/29 17:37:02;;;;;;;0.50;0.50;;;;;;;;;;5097971;28;20181;-88
2021/09/29 17:54:02;;;;;;;0.50;0.50;;;;;;;;;;5095204;28;20692;-87
2021/09/29 17:56:31;;;;;;;0.40;0.40;;;;;;;;;;5094936;28;20180;-87
2021/09/29 17:58:58;;;;;;;0.65;0.65;;;;;;;;;;5095389;28;20216;-87
2021/09/29 18:01:30;;;;;;;0.55;0.55;;;;;;;;;;5095095;28;20177;-87
2021/09/29 18:04:02;;;;;;;0.40;0.40;;;;;;;;;;5094932;28;20284;-86
2021/09/29 18:06:36;;;;;;;0.47;0.47;;;;;;;;;;5095087;28;20244;-87
2021/09/29 18:09:05;;;;;;;0.75;0.75;;;;;;;;;;5094729;28;20216;-86
2021/09/29 18:11:35;;;;;;;0.60;0.60;;;;;;;;;;5108027;28;20582;-87
2021/09/29 18:14:03;;;;;;;0.70;0.70;;;;;;;;;;5105965;28;20216;-86
2021/09/29 18:16:32;;;;;;;0.90;0.50;;;;;;;;;;5094257;28;20185;-86
2021/09/29 18:18:59;;;;;;;0.40;0.40;;;;;;;;;;5112721;28;20246;-87
2021/09/29 18:21:28;;;;;;;0.60;0.60;;;;;;;;;;5114422;28;20386;-87
2021/09/29 18:23:58;;;;;;;0.55;0.55;;;;;;;;;;5114399;28;20202;-85
2021/09/29 18:26:25;;;;;;;0.40;0.40;;;;;;;;;;5114670;28;20286;-86
2021/09/29 18:28:54;;;;;;;0.50;0.50;;;;;;;;;;5114608;28;20230;-86